createdAt,value
2022-11-13T00:00:48.093Z,36.10
2022-11-13T00:01:48.088Z,36.30
2022-11-13T00:02:48.135Z,48.50
2022-11-13T00:03:48.033Z,41.20
2022-11-13T00:04:48.013Z,49.60
2022-11-13T00:05:49.193Z,53.40
2022-11-13T00:06:48.087Z,52.00
2022-11-13T00:07:47.957Z,54.70
2022-11-13T00:08:48.106Z,30.80
2022-11-13T00:10:09.024Z,41.50
2022-11-13T00:11:58.133Z,57.70
2022-11-13T00:12:58.124Z,59.70
2022-11-13T00:13:58.128Z,39.90
2022-11-13T00:14:58.113Z,44.90
2022-11-13T00:15:58.124Z,48.00
2022-11-13T00:18:08.311Z,26.80
2022-11-13T00:19:08.313Z,33.60
2022-11-13T00:20:08.294Z,50.50
2022-11-13T00:21:08.287Z,43.00
2022-11-13T00:22:08.325Z,39.60
2022-11-13T00:23:10.318Z,60.40
2022-11-13T00:24:08.241Z,50.10
2022-11-13T00:25:08.204Z,39.60
2022-11-13T00:26:08.224Z,37.90
2022-11-13T00:27:08.225Z,34.00
2022-11-13T00:28:08.243Z,42.20
2022-11-13T00:29:08.273Z,47.90
2022-11-13T00:30:08.254Z,26.90
2022-11-13T00:31:08.153Z,26.90
2022-11-13T00:32:08.170Z,47.10
2022-11-13T00:33:08.164Z,50.50
2022-11-13T00:34:47.488Z,57.60
2022-11-13T00:35:09.075Z,44.20
2022-11-13T00:36:08.094Z,39.50
2022-11-13T00:37:08.045Z,22.40
2022-11-13T00:38:08.112Z,26.50
2022-11-13T00:39:08.146Z,23.70
2022-11-13T00:40:08.120Z,25.60
2022-11-13T00:41:08.025Z,22.00
2022-11-13T00:42:08.044Z,33.80
2022-11-13T00:43:08.035Z,31.50
2022-11-13T00:44:08.075Z,35.30
2022-11-13T00:45:08.068Z,23.90
2022-11-13T00:46:07.943Z,28.80
2022-11-13T00:47:28.963Z,28.10
2022-11-13T00:48:07.955Z,29.20
2022-11-13T00:49:08.018Z,27.60
2022-11-13T00:50:07.977Z,19.10
2022-11-13T00:51:07.986Z,18.90
2022-11-13T00:52:08.913Z,18.30
2022-11-13T00:53:07.901Z,33.80
2022-11-13T00:54:07.932Z,26.40
2022-11-13T00:55:07.917Z,27.00
2022-11-13T00:56:07.814Z,24.80
2022-11-13T00:57:07.802Z,19.10
2022-11-13T00:58:08.855Z,29.70
2022-11-13T00:59:07.866Z,32.70
2022-11-13T01:00:07.838Z,32.50
2022-11-13T01:01:07.860Z,38.00
2022-11-13T01:02:07.757Z,30.70
2022-11-13T01:03:07.758Z,34.10
2022-11-13T01:04:09.758Z,30.90
2022-11-13T01:05:07.777Z,39.40
2022-11-13T01:06:07.778Z,30.30
2022-11-13T01:07:07.774Z,30.30
2022-11-13T01:08:07.687Z,34.00
2022-11-13T01:09:08.662Z,27.30
2022-11-13T01:10:07.714Z,25.20
2022-11-13T01:11:07.715Z,27.70
2022-11-13T01:12:07.619Z,27.40
2022-11-13T01:13:07.598Z,25.40
2022-11-13T01:14:07.659Z,29.70
2022-11-13T01:15:07.572Z,22.90
2022-11-13T01:16:07.638Z,24.60
2022-11-13T01:17:07.547Z,30.80
2022-11-13T01:18:07.526Z,33.20
2022-11-13T01:19:07.609Z,30.70
2022-11-13T01:20:07.565Z,23.10
2022-11-13T01:21:07.576Z,24.50
2022-11-13T01:22:07.489Z,34.20
2022-11-13T01:23:07.491Z,25.20
2022-11-13T01:24:07.529Z,30.50
2022-11-13T01:25:07.509Z,27.70
2022-11-13T01:26:07.509Z,25.90
2022-11-13T01:27:07.431Z,20.70
2022-11-13T01:28:07.419Z,27.80
2022-11-13T01:29:07.473Z,23.10
2022-11-13T01:30:07.439Z,25.50
2022-11-13T01:31:07.447Z,20.30
2022-11-13T01:32:07.360Z,24.90
2022-11-13T01:33:07.357Z,31.60
2022-11-13T01:34:07.310Z,18.00
2022-11-13T01:35:07.370Z,23.80
2022-11-13T01:36:07.383Z,21.40
2022-11-13T01:37:07.282Z,26.40
2022-11-13T01:38:07.289Z,25.20
2022-11-13T01:39:07.250Z,26.00
2022-11-13T01:40:07.310Z,25.30
2022-11-13T01:41:07.311Z,25.20
2022-11-13T01:42:07.220Z,26.20
2022-11-13T01:43:07.231Z,25.30
2022-11-13T01:44:07.179Z,25.10
2022-11-13T01:45:07.241Z,23.40
2022-11-13T01:46:07.143Z,25.60
2022-11-13T01:47:07.131Z,23.50
2022-11-13T01:48:07.134Z,22.10
2022-11-13T01:49:07.111Z,18.00
2022-11-13T01:50:07.092Z,22.00
2022-11-13T01:51:07.171Z,22.60
2022-11-13T01:52:07.078Z,22.80
2022-11-13T01:53:07.060Z,24.70
2022-11-13T01:54:07.051Z,18.50
2022-11-13T01:55:07.031Z,25.40
2022-11-13T01:56:07.110Z,22.20
2022-11-13T01:57:07.011Z,17.60
2022-11-13T01:58:07.013Z,20.30
2022-11-13T01:59:07.052Z,20.70
2022-11-13T02:00:07.038Z,13.70
2022-11-13T02:01:07.044Z,17.80
2022-11-13T02:02:06.976Z,20.10
2022-11-13T02:03:06.957Z,18.70
2022-11-13T02:04:06.915Z,18.70
2022-11-13T02:05:06.891Z,18.20
2022-11-13T02:06:06.963Z,19.40
2022-11-13T02:07:07.014Z,20.80
2022-11-13T02:08:06.881Z,18.30
2022-11-13T02:09:06.922Z,20.60
2022-11-13T02:10:06.833Z,18.20
2022-11-13T02:11:06.902Z,19.60
2022-11-13T02:12:07.831Z,19.10
2022-11-13T02:13:06.833Z,17.90
2022-11-13T02:14:06.793Z,16.70
2022-11-13T02:15:06.784Z,17.40
2022-11-13T02:16:06.834Z,20.80
2022-11-13T02:17:06.861Z,15.30
2022-11-13T02:18:06.744Z,17.70
2022-11-13T02:19:06.786Z,16.50
2022-11-13T02:20:06.693Z,17.90
2022-11-13T02:21:06.789Z,15.80
2022-11-13T02:22:06.774Z,17.80
2022-11-13T02:23:06.699Z,17.20
2022-11-13T02:24:06.726Z,18.00
2022-11-13T02:25:06.701Z,16.40
2022-11-13T02:26:06.703Z,13.60
2022-11-13T02:27:06.715Z,11.20
2022-11-13T02:28:06.614Z,12.70
2022-11-13T02:29:07.664Z,16.90
2022-11-13T02:30:07.585Z,13.90
2022-11-13T02:31:06.636Z,16.70
2022-11-13T02:32:06.645Z,17.80
2022-11-13T02:33:06.546Z,14.20
2022-11-13T02:34:06.536Z,16.90
2022-11-13T02:35:06.539Z,14.40
2022-11-13T02:36:08.545Z,15.20
2022-11-13T02:37:06.575Z,10.70
2022-11-13T02:38:06.583Z,13.20
2022-11-13T02:39:06.465Z,13.40
2022-11-13T02:40:06.447Z,13.80
2022-11-13T02:41:06.505Z,15.00
2022-11-13T02:42:06.516Z,10.40
2022-11-13T02:43:06.514Z,13.20
2022-11-13T02:44:06.447Z,10.50
2022-11-13T02:45:06.438Z,8.20
2022-11-13T02:46:06.433Z,9.30
2022-11-13T02:47:06.435Z,11.60
2022-11-13T02:48:06.446Z,11.60
2022-11-13T02:49:07.407Z,10.80
2022-11-13T02:50:06.328Z,11.50
2022-11-13T02:51:06.314Z,11.40
2022-11-13T02:52:06.367Z,11.60
2022-11-13T02:53:06.376Z,10.90
2022-11-13T02:54:06.319Z,11.70
2022-11-13T02:55:06.277Z,10.80
2022-11-13T02:56:06.300Z,10.00
2022-11-13T02:57:06.304Z,10.30
2022-11-13T02:58:06.307Z,12.00
2022-11-13T02:59:06.247Z,12.20
2022-11-13T03:00:10.642Z,9.50
2022-11-13T03:01:07.246Z,8.50
2022-11-13T03:02:06.317Z,11.30
2022-11-13T03:03:07.156Z,12.00
2022-11-13T03:04:06.192Z,10.10
2022-11-13T03:05:12.002Z,9.90
2022-11-13T03:06:07.187Z,7.70
2022-11-13T03:07:06.225Z,9.40
2022-11-13T03:08:06.186Z,8.90
2022-11-13T03:09:06.107Z,8.80
2022-11-13T03:10:06.087Z,7.50
2022-11-13T03:11:06.098Z,10.10
2022-11-13T03:12:06.047Z,11.20
2022-11-13T03:13:06.116Z,9.10
2022-11-13T03:14:06.056Z,8.80
2022-11-13T03:15:05.997Z,8.40
2022-11-13T03:16:06.034Z,10.50
2022-11-13T03:17:05.970Z,9.70
2022-11-13T03:18:06.039Z,8.10
2022-11-13T03:19:05.966Z,8.90
2022-11-13T03:20:05.956Z,10.00
2022-11-13T03:21:05.970Z,6.60
2022-11-13T03:22:05.970Z,9.70
2022-11-13T03:23:05.969Z,10.00
2022-11-13T03:24:05.920Z,7.80
2022-11-13T03:25:10.258Z,12.10
2022-11-13T03:26:06.918Z,10.60
2022-11-13T03:27:05.838Z,11.30
2022-11-13T03:28:05.839Z,10.50
2022-11-13T03:29:05.847Z,11.00
2022-11-13T03:30:05.821Z,10.30
2022-11-13T03:31:05.818Z,10.50
2022-11-13T03:32:05.807Z,10.50
2022-11-13T03:33:05.827Z,11.40
2022-11-13T03:34:05.886Z,10.40
2022-11-13T03:35:05.847Z,10.30
2022-11-13T03:36:05.728Z,11.00
2022-11-13T03:37:05.757Z,10.90
2022-11-13T03:38:05.768Z,9.90
2022-11-13T03:39:05.799Z,11.10
2022-11-13T03:40:05.789Z,10.00
2022-11-13T03:41:05.690Z,10.40
2022-11-13T03:42:05.698Z,8.60
2022-11-13T03:43:05.649Z,9.90
2022-11-13T03:44:05.697Z,10.80
2022-11-13T03:45:05.717Z,10.20
2022-11-13T03:46:05.618Z,8.80
2022-11-13T03:47:05.618Z,10.20
2022-11-13T03:48:05.605Z,10.40
2022-11-13T03:49:05.635Z,9.90
2022-11-13T04:03:15.613Z,8.80
2022-11-13T04:04:15.702Z,8.00
2022-11-13T04:05:21.514Z,9.40
2022-11-13T04:06:16.610Z,11.30
2022-11-13T04:07:15.612Z,9.90
2022-11-13T04:08:17.571Z,10.80
2022-11-13T04:09:15.557Z,9.50
2022-11-13T04:10:15.511Z,10.30
2022-11-13T04:11:15.505Z,10.60
2022-11-13T04:12:15.481Z,9.50
2022-11-13T04:13:15.472Z,12.80
2022-11-13T04:14:15.462Z,12.20
2022-11-13T04:15:15.442Z,10.30
2022-11-13T04:16:15.443Z,9.90
2022-11-13T04:17:15.459Z,9.60
2022-11-13T04:18:15.459Z,10.10
2022-11-13T04:19:15.494Z,11.10
2022-11-13T04:20:15.480Z,9.70
2022-11-13T04:21:15.381Z,10.30
2022-11-13T04:22:15.397Z,10.20
2022-11-13T04:23:15.402Z,8.60
2022-11-13T04:24:15.332Z,10.00
2022-11-13T04:25:15.415Z,9.00
2022-11-13T04:26:15.416Z,9.40
2022-11-13T04:27:15.324Z,9.10
2022-11-13T04:28:15.312Z,9.00
2022-11-13T04:29:15.363Z,10.10
2022-11-13T04:30:15.345Z,9.70
2022-11-13T04:31:15.352Z,9.20
2022-11-13T04:32:15.262Z,9.50
2022-11-13T04:33:15.252Z,10.10
2022-11-13T04:34:15.283Z,9.50
2022-11-13T04:35:15.281Z,9.10
2022-11-13T04:36:15.279Z,9.00
2022-11-13T04:37:16.216Z,9.20
2022-11-13T04:38:15.187Z,10.00
2022-11-13T04:39:15.222Z,8.70
2022-11-13T04:40:15.121Z,9.20
2022-11-13T04:41:15.214Z,10.20
2022-11-13T04:42:15.112Z,10.40
2022-11-13T04:43:15.120Z,10.50
2022-11-13T04:44:15.154Z,9.20
2022-11-13T04:45:15.067Z,10.70
2022-11-13T04:46:15.132Z,10.20
2022-11-13T04:47:15.044Z,9.60
2022-11-13T04:48:15.043Z,10.50
2022-11-13T04:49:15.096Z,8.70
2022-11-13T04:50:15.062Z,9.70
2022-11-13T04:51:15.093Z,9.50
2022-11-13T04:52:14.992Z,10.30
2022-11-13T04:53:14.992Z,9.40
2022-11-13T04:54:14.950Z,9.70
2022-11-13T04:55:14.931Z,10.50
2022-11-13T04:56:15.015Z,9.50
2022-11-13T04:57:15.022Z,8.40
2022-11-13T04:58:14.917Z,8.20
2022-11-13T04:59:14.962Z,8.00
2022-11-13T05:00:14.960Z,9.00
2022-11-13T05:01:14.963Z,9.20
2022-11-13T05:02:14.956Z,9.40
2022-11-13T05:03:14.891Z,8.60
2022-11-13T05:04:14.892Z,8.60
2022-11-13T05:05:14.863Z,10.00
2022-11-13T05:06:14.799Z,9.90
2022-11-13T05:07:14.915Z,8.80
2022-11-13T05:08:15.792Z,9.50
2022-11-13T05:09:14.813Z,8.60
2022-11-13T05:10:14.782Z,8.90
2022-11-13T05:11:14.804Z,9.30
2022-11-13T05:12:15.722Z,9.70
2022-11-13T05:13:14.722Z,9.00
2022-11-13T05:14:14.756Z,9.20
2022-11-13T05:15:14.724Z,9.70
2022-11-13T05:16:14.722Z,10.00
2022-11-13T05:17:35.731Z,9.50
2022-11-13T05:18:14.643Z,9.00
2022-11-13T05:19:15.704Z,8.40
2022-11-13T05:20:14.656Z,9.10
2022-11-13T05:21:14.668Z,9.80
2022-11-13T05:22:14.671Z,9.00
2022-11-13T05:23:14.673Z,9.20
2022-11-13T05:24:14.625Z,9.60
2022-11-13T05:25:14.589Z,8.90
2022-11-13T05:26:14.592Z,8.60
2022-11-13T05:27:17.573Z,10.10
2022-11-13T05:28:14.612Z,9.10
2022-11-13T05:29:14.547Z,9.40
2022-11-13T05:30:14.531Z,9.80
2022-11-13T05:31:14.533Z,9.40
2022-11-13T05:32:14.480Z,9.30
2022-11-13T05:33:14.541Z,8.60
2022-11-13T05:34:14.484Z,9.30
2022-11-13T05:36:24.662Z,9.90
2022-11-13T05:37:24.633Z,9.30
2022-11-13T05:38:24.724Z,8.90
2022-11-13T05:39:24.652Z,8.70
2022-11-13T05:40:24.648Z,7.40
2022-11-13T05:41:24.641Z,9.60
2022-11-13T05:42:24.644Z,9.40
2022-11-13T05:43:24.652Z,9.50
2022-11-13T05:44:24.592Z,10.40
2022-11-13T05:45:24.554Z,8.80
2022-11-13T05:47:34.760Z,9.30
2022-11-13T05:48:34.821Z,8.20
2022-11-13T05:49:34.771Z,8.10
2022-11-13T05:50:34.727Z,8.40
2022-11-13T05:51:34.736Z,8.60
2022-11-13T05:52:34.747Z,8.60
2022-11-13T05:53:34.796Z,9.50
2022-11-13T05:54:34.758Z,9.30
2022-11-13T05:55:34.666Z,7.70
2022-11-13T05:56:34.655Z,8.90
2022-11-13T05:57:34.626Z,8.50
2022-11-13T05:58:34.715Z,8.70
2022-11-13T05:59:34.697Z,9.50
2022-11-13T06:00:34.578Z,8.70
2022-11-13T06:01:34.653Z,6.90
2022-11-13T06:02:34.608Z,9.30
2022-11-13T06:03:34.617Z,8.10
2022-11-13T06:04:34.550Z,8.90
2022-11-13T06:05:34.527Z,8.30
2022-11-13T06:06:34.579Z,7.60
2022-11-13T06:07:34.547Z,8.50
2022-11-13T06:08:34.496Z,9.60
2022-11-13T06:09:35.529Z,8.20
2022-11-13T06:10:35.485Z,9.10
2022-11-13T06:11:34.475Z,8.50
2022-11-13T06:12:34.474Z,9.80
2022-11-13T06:13:34.477Z,8.80
2022-11-13T06:14:34.517Z,9.10
2022-11-13T06:15:35.427Z,8.80
2022-11-13T06:16:34.407Z,9.50
2022-11-13T06:17:34.407Z,8.90
2022-11-13T06:18:34.732Z,9.60
2022-11-13T06:19:34.356Z,9.70
2022-11-13T06:20:34.428Z,8.90
2022-11-13T06:21:35.359Z,9.10
2022-11-13T06:22:34.339Z,9.10
2022-11-13T06:23:34.391Z,8.20
2022-11-13T06:24:34.351Z,9.00
2022-11-13T06:25:34.268Z,9.20
2022-11-13T06:26:34.268Z,9.40
2022-11-13T06:27:34.279Z,9.20
2022-11-13T06:28:34.323Z,8.80
2022-11-13T06:29:34.222Z,8.80
2022-11-13T06:30:34.289Z,9.30
2022-11-13T06:31:34.299Z,8.60
2022-11-13T06:32:34.218Z,9.10
2022-11-13T06:33:34.182Z,8.80
2022-11-13T06:34:34.157Z,8.00
2022-11-13T06:35:34.232Z,10.40
2022-11-13T06:36:34.230Z,10.30
2022-11-13T06:37:34.909Z,9.90
2022-11-13T06:38:34.196Z,10.70
2022-11-13T06:39:34.107Z,9.60
2022-11-13T06:40:34.159Z,9.50
2022-11-13T06:41:34.171Z,10.30
2022-11-13T06:42:34.069Z,8.60
2022-11-13T06:43:34.120Z,9.80
2022-11-13T06:44:34.079Z,8.40
2022-11-13T06:45:34.021Z,9.90
2022-11-13T06:46:34.098Z,10.60
2022-11-13T06:47:34.010Z,10.10
2022-11-13T06:48:35.070Z,11.20
2022-11-13T06:49:35.048Z,11.00
2022-11-13T06:50:33.949Z,9.40
2022-11-13T06:51:34.044Z,8.90
2022-11-13T06:52:33.937Z,10.00
2022-11-13T06:53:33.979Z,9.80
2022-11-13T06:54:33.950Z,9.20
2022-11-13T06:55:54.878Z,10.40
2022-11-13T06:56:33.868Z,10.40
2022-11-13T06:57:33.974Z,10.70
2022-11-13T06:58:33.914Z,11.10
2022-11-13T06:59:33.878Z,9.60
2022-11-13T07:00:37.112Z,10.90
2022-11-13T07:01:34.008Z,11.10
2022-11-13T07:02:33.909Z,10.70
2022-11-13T07:03:33.831Z,10.40
2022-11-13T07:04:33.809Z,10.40
2022-11-13T07:05:33.817Z,10.70
2022-11-13T07:06:39.049Z,11.10
2022-11-13T07:07:34.749Z,9.40
2022-11-13T07:08:33.769Z,9.70
2022-11-13T07:09:34.770Z,8.70
2022-11-13T07:10:33.748Z,10.90
2022-11-13T07:11:33.678Z,10.10
2022-11-13T07:12:33.759Z,10.40
2022-11-13T07:13:33.691Z,9.00
2022-11-13T07:14:33.679Z,10.40
2022-11-13T07:15:33.681Z,11.80
2022-11-13T07:16:50.119Z,11.60
2022-11-13T07:17:34.619Z,11.60
2022-11-13T07:18:33.638Z,10.30
2022-11-13T07:19:33.608Z,9.70
2022-11-13T07:20:33.610Z,11.00
2022-11-13T07:21:33.552Z,11.00
2022-11-13T07:22:33.551Z,11.50
2022-11-13T07:23:33.631Z,12.40
2022-11-13T07:24:34.608Z,11.60
2022-11-13T07:25:33.548Z,11.80
2022-11-13T07:26:33.561Z,12.30
2022-11-13T07:27:33.561Z,12.60
2022-11-13T07:28:33.510Z,10.90
2022-11-13T07:29:33.491Z,12.60
2022-11-13T07:30:33.490Z,11.40
2022-11-13T07:31:33.491Z,12.00
2022-11-13T07:32:33.411Z,12.10
2022-11-13T07:33:33.429Z,13.50
2022-11-13T07:34:33.424Z,11.90
2022-11-13T07:35:33.419Z,12.80
2022-11-13T07:36:33.422Z,12.80
2022-11-13T07:37:33.347Z,11.60
2022-11-13T07:38:33.374Z,13.70
2022-11-13T07:39:33.345Z,11.10
2022-11-13T07:40:34.381Z,9.80
2022-11-13T07:41:33.350Z,10.60
2022-11-13T07:42:33.371Z,10.50
2022-11-13T07:43:33.402Z,12.30
2022-11-13T07:44:53.628Z,9.50
2022-11-13T07:45:34.306Z,10.30
2022-11-13T07:46:33.302Z,10.70
2022-11-13T07:47:33.310Z,10.90
2022-11-13T07:48:33.337Z,10.50
2022-11-13T07:49:33.300Z,10.30
2022-11-13T07:50:33.228Z,9.60
2022-11-13T07:51:54.229Z,10.80
2022-11-13T07:52:33.161Z,9.90
2022-11-13T07:53:33.150Z,10.50
2022-11-13T07:54:33.130Z,10.40
2022-11-13T07:55:34.169Z,11.00
2022-11-13T07:56:33.150Z,11.30
2022-11-13T07:57:33.160Z,11.30
2022-11-13T07:58:33.099Z,12.30
2022-11-13T07:59:33.171Z,11.80
2022-11-13T08:00:33.081Z,11.40
2022-11-13T08:01:35.208Z,11.00
2022-11-13T08:02:33.090Z,11.00
2022-11-13T08:03:33.021Z,10.70
2022-11-13T08:04:34.061Z,11.30
2022-11-13T08:05:33.011Z,9.10
2022-11-13T08:06:32.995Z,8.30
2022-11-13T08:07:33.021Z,9.90
2022-11-13T08:08:33.041Z,12.00
2022-11-13T08:09:32.961Z,10.30
2022-11-13T08:10:32.950Z,11.00
2022-11-13T08:11:32.911Z,11.20
2022-11-13T08:12:32.959Z,9.20
2022-11-13T08:13:32.961Z,10.50
2022-11-13T08:14:32.886Z,11.30
2022-11-13T08:15:32.869Z,11.40
2022-11-13T08:16:32.890Z,11.50
2022-11-13T08:17:32.890Z,10.50
2022-11-13T08:18:32.900Z,9.90
2022-11-13T08:19:32.829Z,11.10
2022-11-13T08:20:34.882Z,11.10
2022-11-13T08:21:32.812Z,10.40
2022-11-13T08:22:32.838Z,10.30
2022-11-13T08:23:32.825Z,9.10
2022-11-13T08:24:32.761Z,11.00
2022-11-13T08:25:32.841Z,10.40
2022-11-13T08:26:32.753Z,10.30
2022-11-13T08:27:32.712Z,10.20
2022-11-13T08:28:32.764Z,11.20
2022-11-13T08:29:32.789Z,11.10
2022-11-13T08:30:32.776Z,9.40
2022-11-13T08:31:32.651Z,9.70
2022-11-13T08:32:32.684Z,11.00
2022-11-13T08:33:32.721Z,8.90
2022-11-13T08:34:32.701Z,8.30
2022-11-13T08:35:32.636Z,8.90
2022-11-13T08:36:32.611Z,7.40
2022-11-13T08:37:53.612Z,7.70
2022-11-13T08:38:32.661Z,9.70
2022-11-13T08:39:32.634Z,9.30
2022-11-13T08:40:32.532Z,8.00
2022-11-13T08:41:32.533Z,7.80
2022-11-13T08:42:53.562Z,8.60
2022-11-13T08:43:32.581Z,8.20
2022-11-13T08:44:32.561Z,8.30
2022-11-13T08:45:32.496Z,8.60
2022-11-13T08:46:32.485Z,8.00
2022-11-13T08:47:32.479Z,8.80
2022-11-13T08:48:32.572Z,9.30
2022-11-13T08:49:32.493Z,8.90
2022-11-13T08:50:32.509Z,7.50
2022-11-13T08:51:32.412Z,8.60
2022-11-13T08:52:32.412Z,8.80
2022-11-13T08:53:32.443Z,8.00
2022-11-13T08:54:32.439Z,8.80
2022-11-13T08:55:32.423Z,8.60
2022-11-13T08:56:32.444Z,9.90
2022-11-13T08:57:32.344Z,9.00
2022-11-13T08:58:32.732Z,8.30
2022-11-13T08:59:32.355Z,8.30
2022-11-13T09:00:32.375Z,8.00
2022-11-13T09:01:32.375Z,8.50
2022-11-13T09:02:32.283Z,7.60
2022-11-13T09:03:32.395Z,7.60
2022-11-13T09:04:32.294Z,8.20
2022-11-13T09:05:34.946Z,9.70
2022-11-13T09:06:32.206Z,9.30
2022-11-13T09:07:32.252Z,9.00
2022-11-13T09:08:32.253Z,8.90
2022-11-13T09:09:32.216Z,9.10
2022-11-13T09:10:32.245Z,9.60
2022-11-13T09:11:33.159Z,10.90
2022-11-13T09:12:32.143Z,10.90
2022-11-13T09:13:32.174Z,8.50
2022-11-13T09:14:32.157Z,8.60
2022-11-13T09:15:32.156Z,8.70
2022-11-13T09:16:32.175Z,9.20
2022-11-13T09:17:32.077Z,9.20
2022-11-13T09:18:32.251Z,10.30
2022-11-13T09:19:32.085Z,8.80
2022-11-13T09:20:32.095Z,9.50
2022-11-13T09:21:32.098Z,10.40
2022-11-13T09:22:32.003Z,9.00
2022-11-13T09:23:36.236Z,8.50
2022-11-13T09:24:33.037Z,8.40
2022-11-13T09:25:37.065Z,8.10
2022-11-13T09:26:32.958Z,8.00
2022-11-13T09:27:31.916Z,7.80
2022-11-13T09:28:32.147Z,8.00
2022-11-13T09:29:31.977Z,8.10
2022-11-13T09:30:31.968Z,7.50
2022-11-13T09:31:31.957Z,6.80
2022-11-13T09:32:31.879Z,6.60
2022-11-13T09:33:31.885Z,6.60
2022-11-13T09:34:31.915Z,6.90
2022-11-13T09:35:31.888Z,7.10
2022-11-13T09:36:31.896Z,5.90
2022-11-13T09:37:31.797Z,6.60
2022-11-13T09:38:32.272Z,6.20
2022-11-13T09:39:31.838Z,6.40
2022-11-13T09:40:31.826Z,5.90
2022-11-13T09:41:31.829Z,6.50
2022-11-13T09:42:52.839Z,5.10
2022-11-13T09:43:58.199Z,5.60
2022-11-13T09:44:32.693Z,5.20
2022-11-13T09:45:32.779Z,5.10
2022-11-13T09:46:31.662Z,5.30
2022-11-13T09:47:31.653Z,4.80
2022-11-13T10:04:14.296Z,4.40
2022-11-13T10:05:11.518Z,4.60
2022-11-13T10:06:11.440Z,3.80
2022-11-13T10:07:11.467Z,4.00
2022-11-13T10:08:11.454Z,4.40
2022-11-13T10:09:11.411Z,4.10
2022-11-13T10:10:11.459Z,4.30
2022-11-13T10:11:11.368Z,4.20
2022-11-13T10:12:11.470Z,4.30
2022-11-13T10:13:11.383Z,4.20
2022-11-13T10:14:11.411Z,3.70
2022-11-13T10:15:11.389Z,4.00
2022-11-13T10:16:11.392Z,3.90
2022-11-13T10:17:11.392Z,3.90
2022-11-13T10:18:11.319Z,3.80
2022-11-13T10:19:11.343Z,4.00
2022-11-13T10:20:11.313Z,3.70
2022-11-13T10:21:11.323Z,3.70
2022-11-13T10:22:32.292Z,3.30
2022-11-13T10:23:12.206Z,3.80
2022-11-13T10:24:14.263Z,3.80
2022-11-13T10:25:11.193Z,3.70
2022-11-13T10:26:34.213Z,3.60
2022-11-13T10:27:11.274Z,3.20
2022-11-13T10:28:35.079Z,3.50
2022-11-13T10:29:12.270Z,3.40
2022-11-13T10:30:11.122Z,3.30
2022-11-13T10:31:11.194Z,2.80
2022-11-13T10:32:11.199Z,3.70
2022-11-13T10:33:11.103Z,3.50
2022-11-13T10:34:11.073Z,3.50
2022-11-13T10:35:11.118Z,3.20
2022-11-13T10:36:11.117Z,3.50
2022-11-13T10:37:11.139Z,3.50
2022-11-13T10:38:11.078Z,3.60
2022-11-13T10:39:11.321Z,3.50
2022-11-13T10:40:12.040Z,3.40
2022-11-13T10:41:11.058Z,3.50
2022-11-13T10:42:11.059Z,3.30
2022-11-13T10:43:12.029Z,3.10
2022-11-13T10:44:10.969Z,3.40
2022-11-13T10:45:12.419Z,3.30
2022-11-13T10:46:10.918Z,3.30
2022-11-13T10:47:10.990Z,3.60
2022-11-13T10:48:10.919Z,3.50
2022-11-13T10:50:22.105Z,2.90
2022-11-13T10:51:22.095Z,2.90
2022-11-13T10:52:22.085Z,3.20
2022-11-13T10:53:22.125Z,3.20
2022-11-13T10:54:22.101Z,3.00
2022-11-13T10:55:22.062Z,3.00
2022-11-13T10:56:22.116Z,3.30
2022-11-13T10:57:22.026Z,2.70
2022-11-13T10:58:22.069Z,3.40
2022-11-13T10:59:22.046Z,3.20
2022-11-13T11:01:32.274Z,3.10
2022-11-13T11:02:32.200Z,3.20
2022-11-13T11:03:32.221Z,3.10
2022-11-13T11:04:32.211Z,3.40
2022-11-13T11:05:32.201Z,3.20
2022-11-13T11:06:48.974Z,3.50
2022-11-13T11:07:33.211Z,3.20
2022-11-13T11:08:32.429Z,3.40
2022-11-13T11:09:32.101Z,3.20
2022-11-13T11:10:32.141Z,3.10
2022-11-13T11:11:33.171Z,3.00
2022-11-13T11:12:33.093Z,3.10
2022-11-13T11:13:32.053Z,3.30
2022-11-13T11:14:32.073Z,3.00
2022-11-13T11:15:32.084Z,2.90
2022-11-13T11:16:32.089Z,3.40
2022-11-13T11:17:33.006Z,3.30
2022-11-13T11:18:32.240Z,3.00
2022-11-13T11:19:33.124Z,3.10
2022-11-13T11:20:31.964Z,3.70
2022-11-13T11:21:31.946Z,3.20
2022-11-13T11:22:32.024Z,3.00
2022-11-13T11:23:32.957Z,2.80
2022-11-13T11:24:31.961Z,2.80
2022-11-13T11:25:31.936Z,3.10
2022-11-13T11:26:31.958Z,2.90
2022-11-13T11:27:31.955Z,2.90
2022-11-13T11:28:32.219Z,3.30
2022-11-13T11:29:33.945Z,3.00
2022-11-13T11:30:31.995Z,3.00
2022-11-13T11:31:31.838Z,3.10
2022-11-13T11:32:31.907Z,3.50
2022-11-13T11:33:31.953Z,2.80
2022-11-13T11:34:31.818Z,3.10
2022-11-13T11:35:31.818Z,3.20
2022-11-13T11:36:31.830Z,3.00
2022-11-13T11:37:31.822Z,3.20
2022-11-13T11:38:32.095Z,3.20
2022-11-13T11:39:31.833Z,2.90
2022-11-13T11:40:31.754Z,2.90
2022-11-13T11:41:31.754Z,2.70
2022-11-13T11:42:31.753Z,3.50
2022-11-13T11:43:31.804Z,3.10
2022-11-13T11:44:31.794Z,3.00
2022-11-13T11:45:31.665Z,2.90
2022-11-13T11:47:41.928Z,3.10
2022-11-13T11:48:42.000Z,3.10
2022-11-13T11:49:41.947Z,2.70
2022-11-13T11:50:41.862Z,3.00
2022-11-13T11:51:41.850Z,2.90
2022-11-13T11:52:41.803Z,3.20
2022-11-13T11:53:41.913Z,2.90
2022-11-13T11:54:41.870Z,3.00
2022-11-13T11:55:41.772Z,3.10
2022-11-13T11:56:41.801Z,3.00
2022-11-13T11:57:42.841Z,3.10
2022-11-13T11:58:41.833Z,3.00
2022-11-13T11:59:41.812Z,3.00
2022-11-13T12:00:41.823Z,3.00
2022-11-13T12:01:41.734Z,3.20
2022-11-13T12:02:41.732Z,2.90
2022-11-13T12:03:41.764Z,2.60
2022-11-13T12:04:41.791Z,2.70
2022-11-13T12:05:41.825Z,3.00
2022-11-13T12:06:41.709Z,2.90
2022-11-13T12:07:41.675Z,2.90
2022-11-13T12:08:42.714Z,3.00
2022-11-13T12:09:41.686Z,3.00
2022-11-13T12:10:41.695Z,2.80
2022-11-13T12:11:41.588Z,3.20
2022-11-13T12:12:41.598Z,3.50
2022-11-13T12:13:41.647Z,3.40
2022-11-13T12:14:41.553Z,3.10
2022-11-13T12:15:41.539Z,3.30
2022-11-13T12:16:41.622Z,2.90
2022-11-13T12:17:41.538Z,2.90
2022-11-13T12:18:41.559Z,3.10
2022-11-13T12:19:43.519Z,2.60
2022-11-13T12:20:41.539Z,3.10
2022-11-13T12:21:41.559Z,3.20
2022-11-13T12:22:41.470Z,2.70
2022-11-13T12:23:41.444Z,2.90
2022-11-13T12:24:41.479Z,3.10
2022-11-13T12:25:42.506Z,2.80
2022-11-13T12:26:41.502Z,2.90
2022-11-13T12:27:41.403Z,2.80
2022-11-13T12:28:41.456Z,3.10
2022-11-13T12:29:41.409Z,3.00
2022-11-13T12:30:41.421Z,3.20
2022-11-13T12:31:42.360Z,3.50
2022-11-13T12:32:41.322Z,3.10
2022-11-13T12:33:41.356Z,2.90
2022-11-13T12:34:41.363Z,3.10
2022-11-13T12:35:41.350Z,3.30
2022-11-13T12:37:03.393Z,3.40
2022-11-13T12:37:41.257Z,3.20
2022-11-13T12:38:41.318Z,3.20
2022-11-13T12:39:41.294Z,3.30
2022-11-13T12:40:44.535Z,3.10
2022-11-13T12:41:41.308Z,3.30
2022-11-13T12:42:42.218Z,3.30
2022-11-13T12:43:41.217Z,3.00
2022-11-13T12:44:41.228Z,2.90
2022-11-13T12:45:41.211Z,3.00
2022-11-13T12:46:41.238Z,2.90
2022-11-13T12:47:41.231Z,3.20
2022-11-13T12:48:41.163Z,3.20
2022-11-13T12:49:42.207Z,3.00
2022-11-13T12:50:41.181Z,3.40
2022-11-13T12:51:41.152Z,3.30
2022-11-13T12:52:41.064Z,3.10
2022-11-13T12:53:44.282Z,2.80
2022-11-13T12:54:41.083Z,3.00
2022-11-13T12:55:41.023Z,3.10
2022-11-13T12:56:41.079Z,3.20
2022-11-13T12:57:41.096Z,3.70
2022-11-13T12:58:41.006Z,3.50
2022-11-13T12:59:41.012Z,3.10
2022-11-13T13:00:41.014Z,3.00
2022-11-13T13:01:41.083Z,3.10
2022-11-13T13:02:41.052Z,2.80
2022-11-13T13:03:40.963Z,2.80
2022-11-13T13:04:40.944Z,3.30
2022-11-13T13:05:40.951Z,2.90
2022-11-13T13:06:40.985Z,3.40
2022-11-13T13:07:40.934Z,3.30
2022-11-13T13:08:40.884Z,3.10
2022-11-13T13:09:40.847Z,2.80
2022-11-13T13:10:40.831Z,3.00
2022-11-13T13:11:40.809Z,3.00
2022-11-13T13:12:40.792Z,3.00
2022-11-13T13:13:40.807Z,3.50
2022-11-13T13:14:40.798Z,3.30
2022-11-13T13:15:41.816Z,3.40
2022-11-13T13:16:40.820Z,3.00
2022-11-13T13:17:40.805Z,3.80
2022-11-13T13:18:41.017Z,6.50
2022-11-13T13:19:40.687Z,4.20
2022-11-13T13:20:40.710Z,3.70
2022-11-13T13:21:40.668Z,3.30
2022-11-13T13:22:40.919Z,3.60
2022-11-13T13:23:40.660Z,3.50
2022-11-13T13:24:40.639Z,3.40
2022-11-13T13:25:40.611Z,3.70
2022-11-13T13:26:40.611Z,3.50
2022-11-13T13:27:40.671Z,3.40
2022-11-13T13:28:40.591Z,3.40
2022-11-13T13:29:40.564Z,3.50
2022-11-13T13:30:40.614Z,3.50
2022-11-13T13:31:40.541Z,3.40
2022-11-13T13:32:40.602Z,3.10
2022-11-13T13:33:40.523Z,3.40
2022-11-13T13:34:40.512Z,3.40
2022-11-13T13:35:40.499Z,3.70
2022-11-13T13:36:40.474Z,3.60
2022-11-13T13:37:40.462Z,3.30
2022-11-13T13:38:40.465Z,3.70
2022-11-13T13:39:40.440Z,3.50
2022-11-13T13:40:40.423Z,3.70
2022-11-13T13:41:40.463Z,3.50
2022-11-13T13:42:40.463Z,3.30
2022-11-13T13:43:40.421Z,3.60
2022-11-13T13:44:40.474Z,3.70